Time;durP1;ratioP1;P1;durP2;ratioP2;P2;SDS_P1;SDS_P2;PMS_P1;PMS_P2;Temp;Humidity;BMP_temperature;BMP_pressure;BME280_temperature;BME280_humidity;BME280_pressure;Samples;Min_cycle;Max_cycle;Signal;HPM_P1;HPM_P2
2021/12/22 00:02:19;;;;;;;24.67;14.73;;;-1.50;99.90;;;;;;4971378;28;20486;-60
2021/12/22 00:04:49;;;;;;;23.97;14.90;;;-1.50;99.90;;;;;;4971423;28;20517;-60
2021/12/22 00:07:19;;;;;;;24.13;14.67;;;-1.50;99.90;;;;;;4972187;28;21008;-60
2021/12/22 00:09:47;;;;;;;20.27;12.87;;;-1.60;99.90;;;;;;4974672;28;20561;-60
2021/12/22 00:12:15;;;;;;;21.63;14.13;;;-1.50;99.90;;;;;;4974646;28;20481;-60
2021/12/22 00:14:43;;;;;;;24.57;14.80;;;-1.60;99.90;;;;;;4974563;28;20478;-60
2021/12/22 00:17:11;;;;;;;22.83;14.97;;;-1.70;99.90;;;;;;4974731;28;20485;-60
2021/12/22 00:19:39;;;;;;;24.80;15.20;;;-1.60;99.90;;;;;;4965436;28;20475;-60
2021/12/22 00:22:08;;;;;;;23.13;13.23;;;-1.60;99.90;;;;;;4977699;28;20480;-60
2021/12/22 00:24:37;;;;;;;25.53;16.10;;;-1.50;99.90;;;;;;4988587;28;20528;-60
2021/12/22 00:27:05;;;;;;;27.87;17.43;;;-1.50;99.90;;;;;;4992159;28;20485;-59
2021/12/22 00:29:34;;;;;;;23.63;14.57;;;-1.50;99.90;;;;;;4974392;28;20477;-60
2021/12/22 00:32:11;;;;;;;25.13;15.57;;;-1.10;99.90;;;;;;4974568;28;20470;-60
2021/12/22 00:34:46;;;;;;;25.93;15.13;;;-1.10;99.90;;;;;;4972721;28;20485;-60
2021/12/22 00:37:16;;;;;;;26.93;17.37;;;-1.10;99.90;;;;;;4972553;28;20536;-60
2021/12/22 00:39:47;;;;;;;23.40;14.53;;;-1.30;99.90;;;;;;4974228;28;20474;-60
2021/12/22 00:42:15;;;;;;;25.53;16.30;;;-1.40;99.90;;;;;;4974296;28;20477;-60
2021/12/22 00:44:47;;;;;;;27.63;17.30;;;-1.40;99.90;;;;;;4974173;28;20470;-60
2021/12/22 00:47:15;;;;;;;22.80;15.20;;;-1.40;99.90;;;;;;4974261;28;20513;-59
2021/12/22 00:49:43;;;;;;;27.07;17.07;;;-1.40;99.90;;;;;;4973955;28;20482;-60
2021/12/22 00:52:11;;;;;;;25.90;16.33;;;-1.60;99.90;;;;;;4973505;28;20482;-60
2021/12/22 00:54:40;;;;;;;23.43;15.17;;;-1.60;99.90;;;;;;4958028;28;20469;-60
2021/12/22 00:57:10;;;;;;;21.10;13.83;;;-1.70;99.90;;;;;;4973963;28;20482;-60
2021/12/22 00:59:39;;;;;;;24.80;15.53;;;-1.40;99.90;;;;;;4973870;28;20474;-60
2021/12/22 01:02:09;;;;;;;23.47;15.03;;;-1.50;99.90;;;;;;4973876;28;20482;-60
2021/12/22 01:04:38;;;;;;;26.13;16.10;;;-1.50;99.90;;;;;;4973597;28;20482;-60
2021/12/22 01:07:07;;;;;;;21.90;14.77;;;-1.50;99.90;;;;;;4973826;28;20481;-61
2021/12/22 01:09:36;;;;;;;22.80;15.87;;;-1.50;99.90;;;;;;4973606;28;20505;-61
2021/12/22 01:12:06;;;;;;;27.67;18.30;;;-1.50;99.90;;;;;;4973732;28;20845;-60
2021/12/22 01:14:37;;;;;;;23.13;15.90;;;-1.10;99.90;;;;;;4973570;28;20556;-60
2021/12/22 01:17:06;;;;;;;24.33;17.07;;;-1.50;99.90;;;;;;4973512;28;20494;-60
2021/12/22 01:19:42;;;;;;;23.13;15.63;;;-1.50;99.90;;;;;;4972356;28;21051;-60
2021/12/22 01:22:22;;;;;;;19.83;14.30;;;-1.70;99.90;;;;;;4974570;28;20547;-60
2021/12/22 01:25:00;;;;;;;22.40;15.53;;;-1.50;99.90;;;;;;4967205;28;20474;-60
2021/12/22 01:27:33;;;;;;;20.93;13.23;;;-1.30;99.90;;;;;;4973262;28;20477;-60
2021/12/22 01:30:05;;;;;;;23.57;15.67;;;-1.10;99.90;;;;;;4973240;28;20532;-61
2021/12/22 01:32:33;;;;;;;26.13;17.13;;;-0.80;99.90;;;;;;4973215;28;20560;-61
2021/12/22 01:35:01;;;;;;;25.73;16.87;;;-1.20;99.90;;;;;;4973291;28;20478;-60
2021/12/22 01:37:30;;;;;;;27.73;17.83;;;-1.60;99.90;;;;;;4973269;28;20462;-60
2021/12/22 01:40:00;;;;;;;21.43;15.73;;;-1.80;99.90;;;;;;4973322;28;20994;-60
2021/12/22 01:42:28;;;;;;;23.83;15.80;;;-2.00;99.90;;;;;;4973080;28;20480;-60
2021/12/22 01:45:14;;;;;;;27.97;16.93;;;-2.10;99.90;;;;;;4973278;28;20958;-60
2021/12/22 01:50:34;;;;;;;23.20;14.83;;;-2.00;99.90;;;;;;4969540;28;20545;-60
2021/12/22 01:53:08;;;;;;;19.87;13.00;;;-2.10;99.90;;;;;;4965731;28;20466;-60
2021/12/22 01:55:38;;;;;;;21.80;14.40;;;-1.80;99.90;;;;;;4972934;28;21001;-60
2021/12/22 01:58:11;;;;;;;22.30;15.13;;;-1.70;99.90;;;;;;4972486;28;20474;-61
2021/12/22 02:00:39;;;;;;;22.20;14.90;;;-2.00;99.90;;;;;;4972597;28;20524;-61
2021/12/22 02:03:09;;;;;;;17.83;12.70;;;-2.00;99.90;;;;;;4972104;28;20549;-60
2021/12/22 02:05:37;;;;;;;20.47;14.27;;;-1.70;99.90;;;;;;4971850;28;20500;-60
2021/12/22 02:08:07;;;;;;;22.30;14.37;;;-1.60;99.90;;;;;;4972100;28;20568;-60
2021/12/22 02:10:38;;;;;;;24.83;16.70;;;-1.60;99.90;;;;;;4972473;28;20497;-60
2021/12/22 02:13:14;;;;;;;24.10;16.40;;;-1.90;99.90;;;;;;4957495;28;20479;-60
2021/12/22 02:15:43;;;;;;;22.17;14.40;;;-2.10;99.90;;;;;;4968926;28;20474;-60
2021/12/22 02:18:17;;;;;;;22.97;15.40;;;-2.10;99.90;;;;;;4972673;28;20556;-60
2021/12/22 02:20:47;;;;;;;27.10;16.93;;;-2.10;99.90;;;;;;4966803;28;20518;-60
2021/12/22 02:23:15;;;;;;;24.00;16.10;;;-2.10;99.90;;;;;;4960978;28;20487;-60
2021/12/22 02:25:52;;;;;;;23.80;15.13;;;-2.20;99.90;;;;;;4953523;28;20533;-60
2021/12/22 02:28:24;;;;;;;25.57;15.70;;;-2.10;99.90;;;;;;4964611;28;20849;-60
2021/12/22 02:30:53;;;;;;;24.63;16.43;;;-2.30;99.90;;;;;;4972282;28;20895;-61
2021/12/22 02:33:24;;;;;;;23.07;14.63;;;-2.10;99.90;;;;;;4972281;28;20532;-60
2021/12/22 02:36:07;;;;;;;21.10;14.07;;;-2.30;99.90;;;;;;4969846;28;20920;-60
2021/12/22 02:38:40;;;;;;;16.83;11.77;;;-2.40;99.90;;;;;;4948488;28;20476;-60
2021/12/22 02:41:10;;;;;;;20.67;14.27;;;-2.40;99.90;;;;;;4933798;29;20558;-60
2021/12/22 02:43:45;;;;;;;18.03;12.10;;;-2.40;99.90;;;;;;4966772;28;20501;-60
2021/12/22 02:46:14;;;;;;;22.27;14.97;;;-2.20;99.90;;;;;;4972423;28;20555;-60
2021/12/22 02:48:44;;;;;;;22.13;14.50;;;-2.30;99.90;;;;;;4972058;28;21019;-60
2021/12/22 02:51:14;;;;;;;19.93;13.70;;;-2.40;99.90;;;;;;4972155;28;20506;-60
2021/12/22 02:53:48;;;;;;;20.07;13.93;;;-2.40;99.90;;;;;;4960165;28;20487;-60
2021/12/22 02:59:09;;;;;;;22.83;15.00;;;-2.20;99.90;;;;;;4953434;28;20570;-60
2021/12/22 03:04:29;;;;;;;22.53;14.47;;;-2.50;99.90;;;;;;4952307;28;20479;-60
2021/12/22 03:07:02;;;;;;;22.03;14.60;;;-2.60;99.90;;;;;;4952676;28;20566;-60
2021/12/22 03:09:33;;;;;;;23.00;14.87;;;-2.70;99.90;;;;;;4952652;28;20986;-59
2021/12/22 03:12:05;;;;;;;21.10;14.50;;;-2.70;99.90;;;;;;4952517;28;20578;-60
2021/12/22 03:14:33;;;;;;;20.67;13.23;;;-2.60;99.90;;;;;;4952479;28;20514;-60
2021/12/22 03:17:02;;;;;;;21.90;13.80;;;-2.60;99.90;;;;;;4952521;28;20483;-60
2021/12/22 03:19:34;;;;;;;20.47;14.10;;;-2.60;99.90;;;;;;4951950;28;20576;-60
2021/12/22 03:22:08;;;;;;;23.00;14.97;;;-2.60;99.90;;;;;;4944148;28;20486;-60
2021/12/22 03:24:38;;;;;;;22.33;14.17;;;-2.60;99.90;;;;;;4952317;28;20496;-60
2021/12/22 03:27:07;;;;;;;19.63;14.30;;;-2.70;99.90;;;;;;4952241;28;20473;-59
2021/12/22 03:29:38;;;;;;;19.70;14.17;;;-2.60;99.90;;;;;;4951529;28;20469;-60
2021/12/22 03:32:08;;;;;;;21.07;13.23;;;-2.70;99.90;;;;;;4938930;28;20475;-60
2021/12/22 03:34:37;;;;;;;20.93;13.97;;;-2.80;99.90;;;;;;4952134;28;20459;-60
2021/12/22 03:37:08;;;;;;;20.33;13.67;;;-2.70;99.90;;;;;;4952186;28;20506;-60
2021/12/22 03:39:36;;;;;;;19.60;12.93;;;-2.70;99.90;;;;;;4948322;28;20514;-60
2021/12/22 03:42:06;;;;;;;23.00;15.20;;;-2.50;99.90;;;;;;4942785;28;20463;-59
2021/12/22 03:44:34;;;;;;;22.00;14.53;;;-2.60;99.90;;;;;;4955427;28;20565;-60
2021/12/22 03:47:03;;;;;;;20.70;14.43;;;-2.50;99.90;;;;;;4947427;28;20538;-60
2021/12/22 03:49:31;;;;;;;20.53;13.83;;;-2.60;99.90;;;;;;4955765;28;20482;-60
2021/12/22 03:52:00;;;;;;;21.77;13.80;;;-2.60;99.90;;;;;;4955997;28;20510;-60
2021/12/22 03:54:29;;;;;;;21.50;13.90;;;-2.70;99.90;;;;;;4955664;28;20479;-60
2021/12/22 03:56:57;;;;;;;20.40;13.53;;;-2.70;99.90;;;;;;4948694;28;20515;-60
2021/12/22 03:59:26;;;;;;;25.07;15.83;;;-2.60;99.90;;;;;;4938016;28;20481;-58
2021/12/22 04:01:54;;;;;;;21.87;14.20;;;-2.80;99.90;;;;;;4936653;29;20559;-60
2021/12/22 04:04:22;;;;;;;24.17;15.57;;;-2.70;99.90;;;;;;4936495;29;20487;-60
2021/12/22 04:06:51;;;;;;;23.47;15.13;;;-2.80;99.90;;;;;;4961621;28;20462;-60
2021/12/22 04:09:26;;;;;;;20.47;13.10;;;-2.80;99.90;;;;;;4974735;28;20525;-58
2021/12/22 04:11:56;;;;;;;25.23;15.57;;;-2.60;99.90;;;;;;4974653;28;20964;-60
2021/12/22 04:14:24;;;;;;;30.00;17.47;;;-2.50;99.90;;;;;;4974855;28;20917;-60
2021/12/22 04:16:52;;;;;;;25.30;16.07;;;-2.30;99.90;;;;;;4974191;28;20930;-60
2021/12/22 04:19:20;;;;;;;24.40;16.47;;;-2.60;99.90;;;;;;4972411;28;20524;-59
2021/12/22 04:21:50;;;;;;;26.27;16.07;;;-2.70;99.90;;;;;;4974576;28;20493;-60
2021/12/22 04:24:18;;;;;;;25.53;16.57;;;-2.60;99.90;;;;;;4974615;28;21069;-60
2021/12/22 04:26:47;;;;;;;22.53;14.70;;;-2.70;99.90;;;;;;4965758;28;20502;-60
2021/12/22 04:29:16;;;;;;;22.53;15.93;;;-2.70;99.90;;;;;;4957964;28;20483;-60
2021/12/22 04:31:44;;;;;;;33.50;24.58;;;-2.40;99.90;;;;;;4954445;28;21015;-61
2021/12/22 04:34:18;;;;;;;23.79;15.58;;;-2.40;99.90;;;;;;3720920;28;10023470;-60
2021/12/22 04:36:47;;;;;;;25.23;16.80;;;-2.60;99.90;;;;;;2398426;28;10002060;-60
2021/12/22 04:39:15;;;;;;;25.30;15.87;;;-2.60;99.90;;;;;;4974185;28;20253;-60
2021/12/22 04:41:43;;;;;;;22.00;15.37;;;-2.50;99.90;;;;;;4974543;28;20565;-59
2021/12/22 04:44:11;;;;;;;21.47;14.10;;;-2.70;99.90;;;;;;4970794;28;21017;-60
2021/12/22 04:46:41;;;;;;;18.23;12.27;;;-2.70;99.90;;;;;;4981148;28;20996;-59
2021/12/22 04:49:09;;;;;;;24.80;14.63;;;-2.60;99.90;;;;;;4975317;28;20533;-60
2021/12/22 04:51:41;;;;;;;22.63;14.33;;;-2.70;99.90;;;;;;4974130;28;20813;-60
2021/12/22 04:54:18;;;;;;;23.53;15.13;;;-2.80;99.90;;;;;;4954852;28;20491;-60
2021/12/22 04:56:46;;;;;;;21.00;14.13;;;-2.90;99.90;;;;;;4964954;28;21622;-60
2021/12/22 04:59:14;;;;;;;24.17;15.53;;;-2.60;99.90;;;;;;4974003;28;20478;-60
2021/12/22 05:01:44;;;;;;;23.03;15.23;;;-2.80;99.90;;;;;;4973591;28;20481;-61
2021/12/22 05:04:12;;;;;;;22.50;14.47;;;-2.90;99.90;;;;;;4973710;28;20819;-60
2021/12/22 05:06:40;;;;;;;22.87;14.53;;;-2.70;99.90;;;;;;4972577;28;20474;-60
2021/12/22 05:09:09;;;;;;;23.83;15.93;;;-2.70;99.90;;;;;;4973675;28;20466;-60
2021/12/22 05:11:37;;;;;;;22.77;13.90;;;-2.70;99.90;;;;;;4973833;28;20489;-59
2021/12/22 05:14:07;;;;;;;24.73;15.90;;;-2.70;99.90;;;;;;4970126;28;20466;-60
2021/12/22 05:16:44;;;;;;;22.80;15.03;;;-2.60;99.90;;;;;;4969675;28;20486;-60
2021/12/22 05:19:15;;;;;;;27.57;16.70;;;-2.50;99.90;;;;;;4970515;28;20473;-60
2021/12/22 05:21:44;;;;;;;22.70;15.23;;;-2.60;99.90;;;;;;4972709;28;20501;-60
2021/12/22 05:24:12;;;;;;;23.40;14.93;;;-2.70;99.90;;;;;;4969920;28;20513;-60
2021/12/22 05:26:41;;;;;;;23.63;15.70;;;-2.70;99.90;;;;;;4965674;28;20477;-59
2021/12/22 05:29:09;;;;;;;22.37;15.03;;;-2.80;99.90;;;;;;4973666;28;20557;-60
2021/12/22 05:31:37;;;;;;;24.43;15.47;;;-2.80;99.90;;;;;;4973410;28;20466;-60
2021/12/22 05:34:05;;;;;;;25.73;16.33;;;-2.60;99.90;;;;;;4972760;28;20470;-60
2021/12/22 05:36:35;;;;;;;23.97;15.57;;;-2.60;99.90;;;;;;4956163;28;20472;-60
2021/12/22 05:39:04;;;;;;;23.97;14.33;;;-2.80;99.90;;;;;;4973132;28;20557;-60
2021/12/22 05:41:32;;;;;;;28.53;14.87;;;-2.40;99.90;;;;;;4973056;28;20520;-59
2021/12/22 05:44:00;;;;;;;26.97;17.53;;;-2.30;99.90;;;;;;4970621;28;20488;-60
2021/12/22 05:46:29;;;;;;;27.77;18.20;;;-2.40;99.90;;;;;;4943197;28;20505;-60
2021/12/22 05:48:57;;;;;;;28.87;17.33;;;-2.50;99.90;;;;;;4950864;28;21054;-60
2021/12/22 05:51:27;;;;;;;30.83;19.57;;;-2.50;99.90;;;;;;4961092;28;20485;-59
2021/12/22 05:53:56;;;;;;;30.90;19.07;;;-2.60;99.90;;;;;;4953413;28;20554;-59
2021/12/22 05:56:25;;;;;;;28.60;17.67;;;-2.70;99.90;;;;;;4967103;28;21005;-59
2021/12/22 05:58:54;;;;;;;25.93;16.43;;;-2.80;99.90;;;;;;4970236;28;20466;-60
2021/12/22 06:01:22;;;;;;;25.43;16.03;;;-2.80;99.90;;;;;;4972282;28;20481;-60
2021/12/22 06:03:50;;;;;;;22.40;14.90;;;-2.90;99.90;;;;;;4959307;28;20831;-59
2021/12/22 06:06:19;;;;;;;22.43;15.17;;;-2.80;99.90;;;;;;4961049;28;20576;-60
2021/12/22 06:08:47;;;;;;;24.27;14.73;;;-2.90;99.90;;;;;;4974697;28;20466;-60
2021/12/22 06:11:16;;;;;;;21.97;14.70;;;-2.90;99.90;;;;;;4978597;28;20485;-60
2021/12/22 06:13:44;;;;;;;22.33;14.90;;;-2.90;99.90;;;;;;4960961;28;20482;-61
2021/12/22 06:16:12;;;;;;;26.30;15.87;;;-2.70;99.90;;;;;;4949813;28;20525;-60
2021/12/22 06:18:43;;;;;;;25.07;16.53;;;-2.60;99.90;;;;;;4972146;28;20496;-60
2021/12/22 06:21:13;;;;;;;22.83;14.97;;;-2.50;99.90;;;;;;4956471;28;20570;-59
2021/12/22 06:23:41;;;;;;;23.97;15.60;;;-2.50;99.90;;;;;;4967237;28;20561;-60
2021/12/22 06:26:09;;;;;;;26.63;14.17;;;-2.50;99.90;;;;;;4964230;28;21091;-60
2021/12/22 06:28:39;;;;;;;24.17;14.73;;;-2.80;99.90;;;;;;4966600;28;20466;-60
2021/12/22 06:31:07;;;;;;;25.87;15.97;;;-2.60;99.90;;;;;;4972781;28;20486;-60
2021/12/22 06:33:37;;;;;;;23.70;15.18;;;-2.80;99.90;;;;;;4606464;28;10001333;-60
2021/12/22 06:36:06;;;;;;;27.35;16.52;;;-2.70;99.90;;;;;;1363707;28;10002004;-59
2021/12/22 06:38:34;;;;;;;25.00;16.37;;;-2.60;99.90;;;;;;4951791;28;20602;-60
2021/12/22 06:41:02;;;;;;;23.80;14.60;;;-2.70;99.90;;;;;;4953339;28;20516;-59
2021/12/22 06:43:31;;;;;;;25.27;15.33;;;-2.70;99.90;;;;;;4953739;28;20479;-60
2021/12/22 06:46:00;;;;;;;23.90;15.47;;;-2.60;99.90;;;;;;4970105;28;20521;-59
2021/12/22 06:48:29;;;;;;;25.07;14.87;;;-2.80;99.90;;;;;;4969058;28;20478;-59
2021/12/22 06:50:57;;;;;;;27.37;15.37;;;-2.80;99.90;;;;;;4972060;28;20485;-60
2021/12/22 06:53:25;;;;;;;25.67;15.53;;;-2.80;99.90;;;;;;4966678;28;21046;-60
2021/12/22 06:55:53;;;;;;;27.03;16.90;;;-2.70;99.90;;;;;;4946827;28;20554;-60
2021/12/22 06:58:21;;;;;;;26.23;15.13;;;-2.60;99.90;;;;;;4953485;28;20526;-60
2021/12/22 07:00:50;;;;;;;28.33;17.60;;;-2.50;99.90;;;;;;4971171;28;20816;-60
2021/12/22 07:03:19;;;;;;;26.13;16.23;;;-2.60;99.90;;;;;;4968473;28;20474;-59
2021/12/22 07:05:48;;;;;;;25.70;16.23;;;-2.70;99.90;;;;;;4971257;28;20928;-60
2021/12/22 07:08:16;;;;;;;27.00;16.47;;;-2.70;99.90;;;;;;4971920;28;20907;-60
2021/12/22 07:10:44;;;;;;;25.87;15.20;;;-2.80;99.90;;;;;;4971849;28;20484;-61
2021/12/22 07:13:14;;;;;;;23.63;14.67;;;-2.70;99.90;;;;;;4971364;28;20853;-60
2021/12/22 07:15:43;;;;;;;27.43;15.80;;;-2.70;99.90;;;;;;4971340;28;20997;-59
2021/12/22 07:18:13;;;;;;;23.43;13.97;;;-2.60;99.90;;;;;;4964913;28;20900;-60
2021/12/22 07:20:42;;;;;;;25.40;16.20;;;-2.60;99.90;;;;;;4970221;28;20957;-60
2021/12/22 07:23:10;;;;;;;27.33;16.80;;;-2.50;99.90;;;;;;4971133;28;20564;-59
2021/12/22 07:25:39;;;;;;;26.00;15.43;;;-2.50;99.90;;;;;;4975650;28;20819;-60
2021/12/22 07:28:08;;;;;;;26.70;16.10;;;-2.60;99.90;;;;;;4975334;28;20895;-60
2021/12/22 07:30:36;;;;;;;24.80;15.40;;;-2.70;99.90;;;;;;4974983;28;20536;-60
2021/12/22 07:33:05;;;;;;;24.47;15.37;;;-2.60;99.90;;;;;;4967002;28;20557;-60
2021/12/22 07:35:38;;;;;;;24.73;15.13;;;-2.70;99.90;;;;;;4971169;28;20513;-59
2021/12/22 07:38:29;;;;;;;24.17;14.90;;;-2.60;99.90;;;;;;4973277;28;21080;-60
2021/12/22 07:40:58;;;;;;;22.73;14.27;;;-2.70;99.90;;;;;;4974016;28;20516;-60
2021/12/22 07:43:28;;;;;;;26.63;15.40;;;-2.70;99.90;;;;;;4966740;28;20936;-60
2021/12/22 07:45:57;;;;;;;23.63;14.33;;;-2.70;99.90;;;;;;4949997;28;20486;-60
2021/12/22 07:48:26;;;;;;;26.77;15.70;;;-2.80;99.90;;;;;;4968771;28;20480;-60
2021/12/22 07:50:57;;;;;;;27.97;15.60;;;-2.70;99.90;;;;;;4975178;28;20568;-60
2021/12/22 07:53:27;;;;;;;23.43;14.50;;;-2.90;99.90;;;;;;4973133;28;20623;-60
2021/12/22 07:55:55;;;;;;;23.57;14.37;;;-2.80;99.90;;;;;;4969307;28;20482;-59
2021/12/22 07:58:24;;;;;;;24.83;14.90;;;-2.70;99.90;;;;;;4983828;28;20473;-60
2021/12/22 08:00:53;;;;;;;21.93;14.00;;;-2.60;99.90;;;;;;4972709;28;20486;-60
2021/12/22 08:03:22;;;;;;;21.67;14.10;;;-2.60;99.90;;;;;;4958380;28;20817;-60
2021/12/22 08:06:09;;;;;;;21.27;13.53;;;-2.60;99.90;;;;;;4961668;28;20577;-60
2021/12/22 08:08:39;;;;;;;22.83;13.13;;;-2.70;99.90;;;;;;4969745;28;20470;-61
2021/12/22 08:11:08;;;;;;;19.30;12.47;;;-2.70;99.90;;;;;;4962146;28;21037;-60
2021/12/22 08:13:36;;;;;;;19.10;13.07;;;-2.60;99.90;;;;;;4957614;28;20490;-60
2021/12/22 08:16:05;;;;;;;18.63;12.90;;;-2.70;99.90;;;;;;4968509;28;20488;-61
2021/12/22 08:18:34;;;;;;;18.90;12.17;;;-2.70;99.90;;;;;;4969681;28;20823;-59
2021/12/22 08:21:02;;;;;;;20.77;12.83;;;-2.70;99.90;;;;;;4969012;28;20505;-60
2021/12/22 08:23:34;;;;;;;17.77;12.50;;;-2.70;99.90;;;;;;4969013;28;20807;-59
2021/12/22 08:26:04;;;;;;;19.53;12.37;;;-2.70;99.90;;;;;;4968309;28;20488;-60
2021/12/22 08:28:32;;;;;;;18.63;12.13;;;-2.60;99.90;;;;;;4968971;28;20506;-60
2021/12/22 08:31:00;;;;;;;18.23;11.87;;;-2.60;99.90;;;;;;4969122;28;21147;-59
2021/12/22 08:33:31;;;;;;;17.90;12.27;;;-2.60;99.90;;;;;;4916351;28;20560;-60
2021/12/22 08:38:53;;;;;;;18.03;11.17;;;-2.50;99.90;;;;;;4961893;28;20254;-59
2021/12/22 08:41:35;;;;;;;18.03;12.57;;;-2.50;99.90;;;;;;4968546;28;20474;-60
2021/12/22 08:44:05;;;;;;;19.70;13.17;;;-2.40;99.90;;;;;;4967566;28;20545;-60
2021/12/22 08:46:36;;;;;;;20.53;12.27;;;-2.40;99.90;;;;;;4948437;28;20479;-60
2021/12/22 08:49:06;;;;;;;18.33;12.07;;;-2.40;99.90;;;;;;4949335;28;20467;-60
2021/12/22 08:51:35;;;;;;;19.07;12.40;;;-2.30;99.90;;;;;;4948512;28;20827;-59
2021/12/22 08:54:04;;;;;;;18.30;12.63;;;-2.30;99.90;;;;;;4949227;28;20574;-60
2021/12/22 08:56:34;;;;;;;20.03;12.87;;;-2.20;99.90;;;;;;4947736;28;20477;-60
2021/12/22 08:59:02;;;;;;;19.73;13.43;;;-2.20;99.90;;;;;;4946431;28;20497;-60
2021/12/22 09:01:31;;;;;;;22.03;14.13;;;-2.10;99.90;;;;;;4947794;28;20542;-61
2021/12/22 09:04:00;;;;;;;22.00;14.63;;;-2.10;99.90;;;;;;4949039;28;20541;-60
2021/12/22 09:06:29;;;;;;;23.27;14.30;;;-2.20;99.90;;;;;;4946106;28;20601;-61
2021/12/22 09:08:58;;;;;;;20.00;13.07;;;-2.20;99.90;;;;;;4949282;28;20482;-60
2021/12/22 09:11:26;;;;;;;19.27;13.27;;;-2.10;99.90;;;;;;4949578;28;21013;-60
2021/12/22 09:13:56;;;;;;;20.20;12.77;;;-2.10;99.90;;;;;;4949451;28;20526;-61
2021/12/22 09:16:24;;;;;;;21.43;13.63;;;-2.10;99.90;;;;;;4947291;28;20559;-59
2021/12/22 09:18:53;;;;;;;19.57;12.57;;;-2.10;99.90;;;;;;4948970;28;20523;-61
2021/12/22 09:21:21;;;;;;;18.17;11.20;;;-2.10;99.90;;;;;;4947163;28;20492;-61
2021/12/22 09:23:50;;;;;;;20.43;12.37;;;-2.10;99.90;;;;;;4949213;28;20486;-60
2021/12/22 09:26:19;;;;;;;21.83;13.43;;;-2.10;99.90;;;;;;4947746;28;20498;-60
2021/12/22 09:28:47;;;;;;;20.93;12.70;;;-2.10;99.90;;;;;;4948958;28;20494;-60
2021/12/22 09:31:16;;;;;;;19.77;12.90;;;-2.10;99.90;;;;;;4947338;28;20490;-60
2021/12/22 09:33:45;;;;;;;19.87;12.90;;;-2.00;99.90;;;;;;4948019;28;20580;-61
2021/12/22 09:36:14;;;;;;;19.73;12.67;;;-2.00;99.90;;;;;;4946731;28;20486;-60
2021/12/22 09:38:43;;;;;;;21.07;12.70;;;-2.00;99.90;;;;;;4966695;28;20512;-60
2021/12/22 09:41:12;;;;;;;20.53;12.40;;;-2.00;99.90;;;;;;4967379;28;20482;-61
2021/12/22 09:43:43;;;;;;;18.60;12.20;;;-1.90;99.90;;;;;;4968040;28;21452;-61
2021/12/22 09:46:16;;;;;;;20.93;13.63;;;-1.70;99.90;;;;;;4966725;28;20923;-60
2021/12/22 09:48:52;;;;;;;21.97;13.27;;;-1.80;99.90;;;;;;4965945;28;20482;-61
2021/12/22 09:54:10;;;;;;;20.23;12.47;;;-1.80;99.90;;;;;;4967239;28;20505;-60
2021/12/22 09:56:41;;;;;;;19.07;12.63;;;-1.80;99.90;;;;;;4964723;28;20553;-59
2021/12/22 09:59:11;;;;;;;22.50;13.33;;;-1.70;99.90;;;;;;4967707;28;20477;-61
2021/12/22 10:01:40;;;;;;;21.40;13.10;;;-1.70;99.90;;;;;;4967231;28;20484;-60
2021/12/22 10:04:10;;;;;;;30.20;19.43;;;-1.70;99.90;;;;;;4966842;28;20525;-61
2021/12/22 10:06:38;;;;;;;22.17;14.20;;;-1.60;99.90;;;;;;4965379;28;20569;-60
2021/12/22 10:09:07;;;;;;;22.70;14.17;;;-1.60;99.90;;;;;;4965399;28;20465;-61
2021/12/22 10:11:43;;;;;;;22.77;14.07;;;-1.50;99.90;;;;;;4967235;28;21049;-60
2021/12/22 10:14:20;;;;;;;25.10;14.50;;;-1.50;99.90;;;;;;4967567;28;20481;-60
2021/12/22 10:16:51;;;;;;;24.17;15.33;;;-1.50;99.90;;;;;;4965543;28;20540;-61
2021/12/22 10:19:21;;;;;;;24.43;14.53;;;-1.40;99.90;;;;;;4967021;28;20903;-61
2021/12/22 10:21:55;;;;;;;25.43;14.93;;;-1.50;99.90;;;;;;4967131;28;20488;-61
2021/12/22 10:24:37;;;;;;;23.77;13.97;;;-1.50;99.90;;;;;;4967556;28;20545;-61
2021/12/22 10:27:07;;;;;;;20.70;13.30;;;-1.50;99.90;;;;;;4965494;28;20482;-61
2021/12/22 10:29:35;;;;;;;25.67;14.83;;;-1.60;99.90;;;;;;4967153;28;20478;-60
2021/12/22 10:32:09;;;;;;;24.73;14.77;;;-1.60;99.90;;;;;;4967447;28;20548;-60
2021/12/22 10:34:58;;;;;;;22.07;14.77;;;-1.50;99.90;;;;;;4308289;28;10001185;-60
2021/12/22 10:37:34;;;;;;;23.98;14.90;;;-1.40;99.90;;;;;;2395249;28;10002095;-61
2021/12/22 10:40:18;;;;;;;25.77;14.77;;;-1.40;99.90;;;;;;4967503;28;20238;-61
2021/12/22 10:42:46;;;;;;;24.33;14.80;;;-1.30;99.90;;;;;;4966599;28;20473;-61
2021/12/22 10:45:16;;;;;;;24.63;14.87;;;-1.30;99.90;;;;;;4966864;28;20478;-60
2021/12/22 10:50:37;;;;;;;25.77;15.03;;;-1.40;99.90;;;;;;4967069;28;20605;-61
2021/12/22 10:53:07;;;;;;;25.20;14.60;;;-1.40;99.90;;;;;;4967077;28;20570;-60
2021/12/22 10:55:41;;;;;;;26.57;15.63;;;-1.50;99.90;;;;;;4964988;28;21056;-61
2021/12/22 10:58:18;;;;;;;21.00;13.73;;;-1.50;99.90;;;;;;4966567;28;20490;-61
2021/12/22 11:01:04;;;;;;;24.57;15.17;;;-1.40;99.90;;;;;;4966660;28;21071;-60
2021/12/22 11:03:41;;;;;;;23.73;15.40;;;-1.30;99.90;;;;;;4966922;28;20493;-60
2021/12/22 11:06:15;;;;;;;26.13;15.60;;;-1.30;99.90;;;;;;4965911;28;20481;-61
2021/12/22 11:08:53;;;;;;;33.03;22.70;;;-1.30;99.90;;;;;;4965988;28;20556;-61
2021/12/22 11:11:21;;;;;;;25.07;16.47;;;-1.30;99.90;;;;;;4966976;28;20564;-61
2021/12/22 11:14:09;;;;;;;27.73;16.63;;;-1.20;99.90;;;;;;4967035;28;21048;-61
2021/12/22 11:16:55;;;;;;;28.23;19.23;;;-1.10;99.90;;;;;;4965468;28;20505;-61
2021/12/22 11:19:25;;;;;;;31.50;19.73;;;-1.10;99.90;;;;;;4966878;28;20489;-61
2021/12/22 11:22:05;;;;;;;27.90;17.50;;;-1.10;99.90;;;;;;4966663;28;21415;-60
2021/12/22 11:24:38;;;;;;;31.93;19.27;;;-1.10;99.90;;;;;;4966357;28;20564;-61
2021/12/22 11:27:08;;;;;;;29.73;18.80;;;-1.10;99.90;;;;;;4964955;28;20490;-61
2021/12/22 11:29:37;;;;;;;30.60;17.97;;;-1.10;99.90;;;;;;4966442;28;20557;-61
2021/12/22 11:32:07;;;;;;;30.73;19.53;;;-1.00;99.90;;;;;;4966884;28;20997;-60
2021/12/22 11:34:37;;;;;;;30.97;18.13;;;-1.00;99.90;;;;;;4965645;28;20484;-61
2021/12/22 11:37:09;;;;;;;34.23;21.20;;;-1.00;99.90;;;;;;4965163;28;20554;-61
2021/12/22 11:39:37;;;;;;;32.00;20.13;;;-1.00;99.90;;;;;;4966489;28;21045;-61
2021/12/22 11:42:08;;;;;;;31.10;20.20;;;-1.00;99.90;;;;;;4966591;28;20462;-60
2021/12/22 11:44:39;;;;;;;37.83;22.57;;;-0.90;99.90;;;;;;4966319;28;20474;-60
2021/12/22 11:47:10;;;;;;;40.80;22.27;;;-1.00;99.90;;;;;;4964915;28;20502;-61
2021/12/22 11:49:50;;;;;;;38.07;22.13;;;-1.00;99.90;;;;;;4966170;28;20474;-61
2021/12/22 11:52:34;;;;;;;39.37;22.90;;;-1.00;99.90;;;;;;4964429;28;20524;-61
2021/12/22 11:55:14;;;;;;;38.87;21.30;;;-1.00;99.90;;;;;;4965782;28;20478;-60
2021/12/22 11:57:44;;;;;;;36.50;21.03;;;-1.00;99.90;;;;;;4965958;28;20577;-61
2021/12/22 12:00:29;;;;;;;38.93;22.63;;;-1.00;99.90;;;;;;4966568;28;20532;-61
2021/12/22 12:02:58;;;;;;;38.40;22.53;;;-1.00;99.90;;;;;;4966661;28;20848;-61
2021/12/22 12:05:28;;;;;;;38.63;23.07;;;-1.00;99.90;;;;;;4968431;28;20486;-61
2021/12/22 12:07:59;;;;;;;40.13;24.17;;;-1.00;99.90;;;;;;4969810;28;20493;-61
2021/12/22 12:10:43;;;;;;;40.67;23.47;;;-0.90;99.90;;;;;;4969503;28;20565;-61
2021/12/22 12:13:22;;;;;;;42.30;24.23;;;-0.80;99.90;;;;;;4969903;28;20559;-61
2021/12/22 12:22:07;;;;;;;41.77;23.93;;;-0.90;99.90;;;;;;4968438;28;20985;-61
2021/12/22 12:24:49;;;;;;;45.57;25.47;;;-0.80;99.90;;;;;;4969359;28;20544;-60
2021/12/22 12:27:50;;;;;;;44.67;25.40;;;-0.80;99.90;;;;;;4967449;28;20489;-60
2021/12/22 12:30:41;;;;;;;39.03;23.23;;;-0.70;99.90;;;;;;4926971;28;21006;-61
2021/12/22 12:33:12;;;;;;;44.87;25.80;;;-0.60;99.90;;;;;;4947476;28;20485;-61
2021/12/22 12:36:05;;;;;;;46.40;27.40;;;-0.60;99.90;;;;;;1478905;28;10022572;-61
2021/12/22 12:38:51;;;;;;;45.00;24.87;;;-0.70;99.90;;;;;;4625801;28;10001011;-60
2021/12/22 12:41:25;;;;;;;43.00;25.07;;;-0.60;99.90;;;;;;4969071;28;20478;-60
2021/12/22 12:44:13;;;;;;;51.73;28.73;;;-0.60;99.90;;;;;;4967902;28;21422;-61
2021/12/22 12:46:52;;;;;;;48.70;28.00;;;-0.70;99.90;;;;;;4967880;28;21001;-61
2021/12/22 12:49:38;;;;;;;51.60;29.90;;;-0.60;99.90;;;;;;4968766;28;20561;-61
2021/12/22 12:52:10;;;;;;;51.00;28.17;;;-0.60;99.90;;;;;;4968495;28;20497;-61
2021/12/22 12:54:47;;;;;;;53.17;29.60;;;-0.60;99.90;;;;;;4968776;28;20520;-61
2021/12/22 12:57:30;;;;;;;55.43;31.13;;;-0.60;99.90;;;;;;4966764;28;21566;-60
2021/12/22 13:00:04;;;;;;;54.10;31.17;;;-0.50;99.90;;;;;;4968721;28;20576;-61
2021/12/22 13:02:38;;;;;;;57.00;32.23;;;-0.50;99.90;;;;;;4968211;28;20474;-60
2021/12/22 13:05:12;;;;;;;52.20;30.13;;;-0.50;99.90;;;;;;4967944;28;20830;-61
2021/12/22 13:07:42;;;;;;;56.53;31.53;;;-0.50;99.90;;;;;;4948614;28;20487;-61
2021/12/22 13:10:15;;;;;;;55.83;31.13;;;-0.40;99.90;;;;;;4965154;28;20501;-60